createdAt,value
2022-10-07T00:01:46.505Z,12.76
2022-10-07T00:04:58.516Z,12.71
2022-10-07T00:08:10.496Z,12.58
2022-10-07T00:11:25.126Z,12.53
2022-10-07T00:14:36.936Z,12.49
2022-10-07T00:17:49.028Z,12.44
2022-10-07T00:21:00.778Z,12.37
2022-10-07T00:24:16.047Z,12.33
2022-10-07T00:27:27.845Z,12.22
2022-10-07T00:30:39.757Z,12.23
2022-10-07T00:33:52.564Z,12.23
2022-10-07T00:37:04.310Z,12.22
2022-10-07T00:40:18.075Z,12.24
2022-10-07T00:43:33.559Z,12.19
2022-10-07T00:46:47.254Z,12.16
2022-10-07T00:50:04.963Z,12.12
2022-10-07T00:53:16.992Z,12.02
2022-10-07T00:56:31.338Z,11.96
2022-10-07T00:59:45.181Z,11.84
2022-10-07T01:02:57.082Z,11.67
2022-10-07T01:06:10.338Z,11.59
2022-10-07T01:09:24.042Z,11.44
2022-10-07T01:12:44.404Z,11.25
2022-10-07T01:16:01.619Z,11.30
2022-10-07T01:19:22.885Z,11.33
2022-10-07T01:22:41.715Z,11.29
2022-10-07T01:26:34.200Z,11.29
2022-10-07T01:29:51.972Z,11.28
2022-10-07T01:33:09.141Z,11.21
2022-10-07T01:36:21.522Z,11.14
2022-10-07T01:39:39.832Z,11.02
2022-10-07T01:42:53.490Z,11.01
2022-10-07T01:46:05.553Z,10.99
2022-10-07T01:49:17.534Z,10.91
2022-10-07T01:52:45.468Z,10.91
2022-10-07T01:56:14.554Z,10.89
2022-10-07T02:00:10.156Z,10.83
2022-10-07T02:03:43.098Z,10.75
2022-10-07T02:07:01.564Z,10.59
2022-10-07T02:10:21.887Z,10.55
2022-10-07T02:13:40.144Z,10.45
2022-10-07T02:16:57.462Z,10.34
2022-10-07T02:20:14.215Z,10.23
2022-10-07T02:23:29.627Z,10.26
2022-10-07T02:26:43.956Z,10.29
2022-10-07T02:29:59.135Z,10.29
2022-10-07T02:33:12.695Z,10.29
2022-10-07T02:36:30.967Z,10.21
2022-10-07T02:39:43.617Z,10.18
2022-10-07T02:43:02.903Z,10.14
2022-10-07T02:46:20.264Z,10.12
2022-10-07T02:49:36.840Z,10.10
2022-10-07T02:52:51.264Z,10.08
2022-10-07T02:56:05.823Z,10.06
2022-10-07T02:59:19.824Z,9.88
2022-10-07T03:02:38.944Z,9.77
2022-10-07T03:05:51.860Z,9.65
2022-10-07T03:09:04.237Z,9.61
2022-10-07T03:12:15.902Z,9.68
2022-10-07T03:15:28.562Z,9.65
2022-10-07T03:18:41.545Z,9.49
2022-10-07T03:21:58.147Z,9.49
2022-10-07T03:25:11.474Z,9.54
2022-10-07T03:28:24.791Z,9.52
2022-10-07T03:31:36.739Z,9.44
2022-10-07T03:34:48.884Z,9.44
2022-10-07T03:38:01.002Z,9.37
2022-10-07T03:41:12.995Z,9.24
2022-10-07T03:44:24.985Z,9.22
2022-10-07T03:47:38.421Z,9.32
2022-10-07T03:50:56.543Z,9.25
2022-10-07T03:54:10.051Z,9.22
2022-10-07T03:57:38.077Z,9.29
2022-10-07T04:00:50.728Z,9.40
2022-10-07T04:04:03.080Z,9.43
2022-10-07T04:07:17.031Z,9.43
2022-10-07T04:10:28.865Z,9.35
2022-10-07T04:13:40.676Z,9.24
2022-10-07T04:16:52.948Z,9.28
2022-10-07T04:20:05.088Z,9.41
2022-10-07T04:23:16.975Z,9.33
2022-10-07T04:26:28.999Z,9.13
2022-10-07T04:29:41.362Z,9.17
2022-10-07T04:32:53.540Z,9.12
2022-10-07T04:36:12.866Z,9.11
2022-10-07T04:39:56.010Z,9.12
2022-10-07T04:43:00.754Z,9.16
2022-10-07T04:46:16.941Z,9.20
2022-10-07T04:49:33.600Z,9.23
2022-10-07T04:52:48.788Z,9.24
2022-10-07T04:56:00.720Z,9.30
2022-10-07T04:59:13.023Z,9.37
2022-10-07T05:02:25.707Z,9.29
2022-10-07T05:05:39.223Z,9.25
2022-10-07T05:08:53.108Z,9.30
2022-10-07T05:12:06.104Z,9.36
2022-10-07T05:15:19.123Z,9.35
2022-10-07T05:18:34.240Z,9.35
2022-10-07T05:21:47.595Z,9.26
2022-10-07T05:25:00.571Z,9.12
2022-10-07T05:28:13.026Z,9.02
2022-10-07T05:31:26.059Z,8.95
2022-10-07T05:34:39.368Z,9.07
2022-10-07T05:37:52.418Z,9.02
2022-10-07T05:41:08.271Z,9.14
2022-10-07T05:44:22.135Z,9.21
2022-10-07T05:47:37.273Z,9.55
2022-10-07T05:50:52.551Z,9.82
2022-10-07T05:54:05.221Z,10.24
2022-10-07T05:57:19.056Z,10.57
2022-10-07T06:00:35.329Z,11.05
2022-10-07T06:03:48.738Z,11.30
2022-10-07T06:07:02.746Z,11.49
2022-10-07T06:10:30.337Z,11.90
2022-10-07T06:17:23.947Z,12.68
2022-10-07T06:20:36.786Z,12.96
2022-10-07T06:23:51.412Z,13.39
2022-10-07T06:27:04.594Z,13.59
2022-10-07T06:30:19.153Z,13.99
2022-10-07T06:33:31.494Z,14.37
2022-10-07T06:36:43.654Z,14.57
2022-10-07T06:39:59.493Z,14.93
2022-10-07T06:43:09.924Z,15.20
2022-10-07T06:46:31.720Z,15.05
2022-10-07T06:49:43.658Z,15.17
2022-10-07T06:52:55.520Z,15.27
2022-10-07T06:56:11.475Z,15.61
2022-10-07T06:59:35.153Z,15.87
2022-10-07T07:02:49.115Z,15.56
2022-10-07T07:06:02.412Z,15.04
2022-10-07T07:09:23.963Z,14.56
2022-10-07T07:12:48.383Z,14.13
2022-10-07T07:16:06.531Z,13.74
2022-10-07T07:19:19.772Z,13.73
2022-10-07T07:22:31.608Z,13.75
2022-10-07T07:25:47.066Z,13.68
2022-10-07T07:29:03.773Z,13.55
2022-10-07T07:32:18.651Z,13.62
2022-10-07T07:35:33.339Z,13.50
2022-10-07T07:38:46.174Z,13.37
2022-10-07T07:41:57.918Z,13.45
2022-10-07T07:45:11.784Z,13.55
2022-10-07T07:48:23.818Z,13.47
2022-10-07T07:51:43.545Z,13.74
2022-10-07T07:54:58.931Z,13.67
2022-10-07T07:58:11.963Z,14.00
2022-10-07T08:01:26.178Z,14.31
2022-10-07T08:04:38.784Z,14.68
2022-10-07T08:07:52.466Z,14.74
2022-10-07T08:11:12.482Z,15.24
2022-10-07T08:14:32.990Z,15.57
2022-10-07T08:17:46.109Z,16.05
2022-10-07T08:21:22.870Z,16.35
2022-10-07T08:24:37.779Z,17.28
2022-10-07T08:27:49.721Z,17.67
2022-10-07T08:31:08.071Z,18.38
2022-10-07T08:34:20.569Z,18.99
2022-10-07T08:37:32.368Z,18.97
2022-10-07T08:40:51.966Z,19.58
2022-10-07T08:44:08.080Z,19.63
2022-10-07T08:47:27.336Z,20.07
2022-10-07T08:50:46.691Z,20.65
2022-10-07T08:54:02.935Z,20.90
2022-10-07T08:57:22.909Z,20.97
2022-10-07T09:00:35.674Z,21.54
2022-10-07T09:03:54.287Z,21.64
2022-10-07T09:07:11.968Z,21.61
2022-10-07T09:10:35.340Z,21.88
2022-10-07T09:13:49.507Z,21.95
2022-10-07T09:17:08.344Z,22.28
2022-10-07T09:20:24.309Z,22.16
2022-10-07T09:23:40.027Z,22.58
2022-10-07T09:26:51.939Z,22.19
2022-10-07T09:30:03.949Z,21.96
2022-10-07T09:33:23.377Z,21.65
2022-10-07T09:36:35.546Z,21.99
2022-10-07T09:39:49.433Z,22.60
2022-10-07T09:43:02.427Z,22.26
2022-10-07T09:46:21.552Z,21.78
2022-10-07T09:49:46.641Z,21.58
2022-10-07T09:53:02.662Z,21.53
2022-10-07T09:56:19.931Z,21.70
2022-10-07T09:59:34.035Z,21.39
2022-10-07T10:02:50.366Z,21.16
2022-10-07T10:06:06.141Z,21.39
2022-10-07T10:09:20.311Z,21.51
2022-10-07T10:12:32.911Z,21.65
2022-10-07T10:15:50.340Z,21.59
2022-10-07T10:19:04.667Z,21.89
2022-10-07T10:22:30.342Z,21.97
2022-10-07T10:26:03.831Z,22.01
2022-10-07T10:29:44.051Z,22.03
2022-10-07T10:33:25.807Z,21.94
2022-10-07T10:36:41.281Z,22.00
2022-10-07T10:40:06.966Z,22.31
2022-10-07T10:43:30.846Z,22.90
2022-10-07T10:46:55.351Z,22.91
2022-10-07T10:50:17.865Z,22.74
2022-10-07T10:53:42.152Z,22.75
2022-10-07T10:56:59.579Z,22.93
2022-10-07T11:00:17.940Z,22.82
2022-10-07T11:04:13.578Z,22.98
2022-10-07T11:07:31.318Z,23.07
2022-10-07T11:10:48.752Z,23.01
2022-10-07T11:14:05.035Z,23.24
2022-10-07T11:17:19.666Z,23.09
2022-10-07T11:20:43.750Z,23.24
2022-10-07T11:24:01.685Z,23.55
2022-10-07T11:27:18.747Z,23.49
2022-10-07T11:30:34.317Z,23.69
2022-10-07T11:33:53.455Z,23.87
2022-10-07T11:37:11.956Z,23.87
2022-10-07T11:40:29.002Z,23.61
2022-10-07T11:43:45.171Z,23.78
2022-10-07T11:46:59.706Z,23.42
2022-10-07T11:50:17.525Z,23.65
2022-10-07T11:53:32.362Z,23.59
2022-10-07T11:56:51.540Z,23.72
2022-10-07T12:00:09.031Z,23.62
2022-10-07T12:03:52.992Z,23.44
2022-10-07T12:07:46.924Z,23.46
2022-10-07T12:11:03.560Z,23.35
2022-10-07T12:14:48.201Z,23.06
2022-10-07T12:18:21.664Z,22.89
2022-10-07T12:21:34.801Z,22.79
2022-10-07T12:24:54.035Z,22.89
2022-10-07T12:28:06.269Z,22.66
2022-10-07T12:31:51.070Z,22.63
2022-10-07T12:35:13.092Z,22.58
2022-10-07T12:38:29.393Z,22.51
2022-10-07T12:41:51.191Z,22.40
2022-10-07T12:45:08.920Z,22.37
2022-10-07T12:48:26.015Z,22.38
2022-10-07T12:51:41.712Z,22.23
2022-10-07T12:55:00.028Z,22.23
2022-10-07T12:58:36.287Z,22.17
2022-10-07T13:02:10.627Z,22.12
2022-10-07T13:06:07.876Z,22.11
2022-10-07T13:10:12.113Z,22.24
2022-10-07T13:13:28.254Z,22.12
2022-10-07T13:16:45.443Z,22.12
2022-10-07T13:20:03.586Z,22.10
2022-10-07T13:23:27.251Z,22.11
2022-10-07T13:26:38.636Z,22.10
2022-10-07T13:29:50.749Z,21.98
2022-10-07T13:33:17.847Z,21.79
2022-10-07T13:36:32.982Z,21.70
2022-10-07T13:39:44.783Z,21.62
2022-10-07T13:43:04.169Z,21.73
2022-10-07T13:46:18.870Z,21.77
2022-10-07T13:49:33.686Z,21.68
2022-10-07T13:52:49.300Z,21.69
2022-10-07T13:56:26.919Z,21.67
2022-10-07T13:59:40.590Z,21.52
2022-10-07T14:02:53.002Z,21.39
2022-10-07T14:06:05.528Z,21.34
2022-10-07T14:09:28.824Z,21.27
2022-10-07T14:12:47.336Z,21.16
2022-10-07T14:16:02.265Z,21.01
2022-10-07T14:19:22.137Z,20.91
2022-10-07T14:22:41.174Z,20.92
2022-10-07T14:26:01.488Z,20.86
2022-10-07T14:29:43.231Z,20.75
2022-10-07T14:33:21.017Z,20.74
2022-10-07T14:36:31.459Z,20.63
2022-10-07T14:39:47.824Z,20.54
2022-10-07T14:43:01.230Z,20.43
2022-10-07T14:46:21.674Z,20.39
2022-10-07T14:49:33.743Z,20.38
2022-10-07T14:52:51.934Z,20.33
2022-10-07T14:56:04.788Z,20.35
2022-10-07T14:59:20.914Z,20.31
2022-10-07T15:02:32.836Z,20.24
2022-10-07T15:05:44.561Z,20.17
2022-10-07T15:08:57.397Z,20.11
2022-10-07T15:12:10.607Z,20.06
2022-10-07T15:15:23.137Z,19.93
2022-10-07T15:18:34.815Z,19.78
2022-10-07T15:21:46.640Z,19.65
2022-10-07T15:24:59.122Z,19.50
2022-10-07T15:28:10.849Z,19.37
2022-10-07T15:31:23.334Z,19.28
2022-10-07T15:34:36.054Z,19.17
2022-10-07T15:37:48.342Z,19.10
2022-10-07T15:41:04.211Z,18.94
2022-10-07T15:44:22.089Z,18.81
2022-10-07T15:47:34.636Z,18.66
2022-10-07T15:50:51.396Z,18.54
2022-10-07T15:54:03.625Z,18.44
2022-10-07T15:57:15.979Z,18.30
2022-10-07T16:00:28.000Z,18.15
2022-10-07T16:03:43.423Z,18.02
2022-10-07T16:06:55.480Z,17.91
2022-10-07T16:10:10.807Z,17.84
2022-10-07T16:13:22.819Z,17.80
2022-10-07T16:16:36.271Z,17.72
2022-10-07T16:19:48.019Z,17.64
2022-10-07T16:22:59.804Z,17.54
2022-10-07T16:26:14.064Z,17.44
2022-10-07T16:29:43.585Z,17.28
2022-10-07T16:32:55.347Z,17.17
2022-10-07T16:36:15.733Z,17.09
2022-10-07T16:39:28.451Z,17.15
2022-10-07T16:42:40.208Z,17.15
2022-10-07T16:45:52.028Z,17.06
2022-10-07T16:49:04.428Z,17.00
2022-10-07T16:52:16.197Z,16.89
2022-10-07T16:55:28.141Z,16.87
2022-10-07T16:58:40.743Z,16.86
2022-10-07T17:01:55.545Z,16.83
2022-10-07T17:05:11.120Z,16.70
2022-10-07T17:08:22.897Z,16.64
2022-10-07T17:11:35.623Z,16.44
2022-10-07T17:14:47.415Z,16.31
2022-10-07T17:18:01.447Z,16.20
2022-10-07T17:21:13.678Z,16.11
2022-10-07T17:24:28.366Z,16.03
2022-10-07T17:27:41.192Z,15.91
2022-10-07T17:30:53.592Z,15.91
2022-10-07T17:34:06.789Z,15.88
2022-10-07T17:37:18.721Z,15.82
2022-10-07T17:40:31.404Z,15.74
2022-10-07T17:43:43.627Z,15.68
2022-10-07T17:46:57.731Z,15.62
2022-10-07T17:50:10.278Z,15.51
2022-10-07T17:53:23.191Z,15.44
2022-10-07T17:56:36.770Z,15.33
2022-10-07T17:59:50.699Z,15.31
2022-10-07T18:03:02.498Z,15.18
2022-10-07T18:06:16.447Z,15.13
2022-10-07T18:09:29.305Z,15.03
2022-10-07T18:13:01.239Z,14.93
2022-10-07T18:16:14.325Z,14.85
2022-10-07T18:19:27.757Z,14.90
2022-10-07T18:22:39.999Z,14.98
2022-10-07T18:25:52.061Z,14.99
2022-10-07T18:29:03.808Z,14.99
2022-10-07T18:32:15.789Z,14.90
2022-10-07T18:35:28.239Z,14.89
2022-10-07T18:38:43.477Z,14.86
2022-10-07T18:41:55.248Z,14.82
2022-10-07T18:45:07.288Z,14.69
2022-10-07T18:48:19.033Z,14.64
2022-10-07T18:51:31.255Z,14.60
2022-10-07T18:54:43.043Z,14.57
2022-10-07T18:57:54.830Z,14.53
2022-10-07T19:01:11.767Z,14.45
2022-10-07T19:04:21.902Z,14.47
2022-10-07T19:07:33.915Z,14.39
2022-10-07T19:10:48.076Z,14.30
2022-10-07T19:14:02.192Z,14.21
2022-10-07T19:20:17.003Z,14.12
2022-10-07T19:23:29.287Z,14.12
2022-10-07T19:26:44.321Z,14.08
2022-10-07T19:29:56.288Z,14.04
2022-10-07T19:33:10.106Z,14.00
2022-10-07T19:36:24.317Z,14.00
2022-10-07T19:39:36.340Z,13.96
2022-10-07T19:42:48.231Z,13.88
2022-10-07T19:46:02.874Z,13.75
2022-10-07T19:49:16.000Z,13.70
2022-10-07T19:52:28.403Z,13.69
2022-10-07T19:55:40.941Z,13.69
2022-10-07T19:58:54.920Z,13.63
2022-10-07T20:02:08.360Z,13.65
2022-10-07T20:05:20.490Z,13.62
2022-10-07T20:08:34.341Z,13.59
2022-10-07T20:11:46.907Z,13.56
2022-10-07T20:14:58.843Z,13.56
2022-10-07T20:18:11.149Z,13.50
2022-10-07T20:21:25.853Z,13.37
2022-10-07T20:24:38.201Z,13.24
2022-10-07T20:27:51.195Z,13.23
2022-10-07T20:31:07.881Z,13.17
2022-10-07T20:34:21.782Z,13.17
2022-10-07T20:37:33.860Z,13.11
2022-10-07T20:41:00.120Z,13.33
2022-10-07T20:44:12.043Z,13.26
2022-10-07T20:47:26.097Z,13.28
2022-10-07T20:50:39.728Z,13.29
2022-10-07T20:54:00.106Z,13.28
2022-10-07T20:57:12.200Z,13.22
2022-10-07T21:00:24.105Z,13.18
2022-10-07T21:03:38.857Z,13.01
2022-10-07T21:20:43.048Z,12.67
2022-10-07T21:32:55.209Z,12.56
2022-10-07T21:36:10.988Z,12.53
2022-10-07T21:39:22.796Z,12.47
2022-10-07T21:42:34.548Z,12.45
2022-10-07T21:45:46.322Z,12.42
2022-10-07T21:48:58.355Z,12.34
2022-10-07T21:52:10.075Z,12.32
2022-10-07T21:55:22.188Z,12.33
2022-10-07T21:58:35.260Z,12.33
2022-10-07T22:01:47.369Z,12.33
2022-10-07T22:05:00.206Z,12.30
2022-10-07T22:08:33.697Z,12.25
2022-10-07T22:11:46.074Z,12.21
2022-10-07T22:14:58.160Z,12.16
2022-10-07T22:18:10.667Z,12.12
2022-10-07T22:21:25.885Z,12.09
2022-10-07T22:24:37.826Z,12.09
2022-10-07T22:27:49.639Z,12.01
2022-10-07T22:31:01.369Z,12.00
2022-10-07T22:34:16.099Z,11.97
2022-10-07T22:37:28.037Z,11.98
2022-10-07T22:40:42.295Z,11.97
2022-10-07T22:43:55.689Z,11.94
2022-10-07T22:47:07.897Z,11.91
2022-10-07T22:50:19.575Z,11.84
2022-10-07T22:53:31.269Z,11.85
2022-10-07T22:56:43.213Z,11.82
2022-10-07T22:59:55.866Z,11.77
2022-10-07T23:03:09.753Z,11.70
2022-10-07T23:06:23.777Z,11.70
2022-10-07T23:09:35.886Z,11.51
2022-10-07T23:12:48.366Z,11.47
2022-10-07T23:16:05.684Z,11.37
2022-10-07T23:19:18.341Z,11.45
2022-10-07T23:22:30.152Z,11.38
2022-10-07T23:25:47.125Z,11.42
2022-10-07T23:29:00.851Z,11.42
2022-10-07T23:32:13.647Z,11.40
2022-10-07T23:35:25.409Z,11.35
2022-10-07T23:38:38.641Z,11.39
2022-10-07T23:41:50.379Z,11.33
2022-10-07T23:45:02.078Z,11.23
2022-10-07T23:48:14.797Z,11.24
2022-10-07T23:51:29.277Z,11.14
2022-10-07T23:54:40.952Z,11.01
2022-10-07T23:57:53.060Z,11.04
